Etusivu
METAR-TAF:

METAR-TAF

Lentoasemat :

Netaji Subhash Chandra Bosen kansainvälinen lentoasema

Kalkutta, Intia

Leveyspiiri: 22-39N, Pituuspiiri: 088-27E, korkeus merenpinnasta: 4 m

Tämänhetkinen sää

Tämä raportti tehtiin 35 minuuttia sitten, kello 21.30 UTC
Tuuli 4 kn pohjoisesta
Lämpötila 28°C
Kosteus 89%
Ilmanpaine 1003 hPa
Näkyvyys: 2800 m
Muutamia pilviä 2000 ft:n korkeudessa
usvaa

METAR: VECC 182130Z 35004KT 2800 HZ FEW020 28/26 Q1003 NOSIG

Aika: 03:35 (22:05 UTC)

Sääennuste

Tämä raportti tehtiin 2 tuntia ja 5 minuuttia sitten, kello 20.00 UTC
Ennuste voimassa 18. päivästä klo 21 UTC - 19. päivään klo 06 UTC
Tuuli 2 kn eri suunnista
Näkyvyys: 2500 m
Muutamia pilviä 2000 ft:n korkeudessa
utua, usvaa
Tulossa
19. päivästä klo 02 UTC - 19. päivään klo 04 UTC
Tuuli 6 kn koillisesta
Näkyvyys: 3000 m
usvaa

TAF: VECC 182000Z 1821/1906 VRB02KT 2500 BR HZ FEW020 BECMG 1902/1904 05006KT 3000 HZ

Säähavainnot ja -ennusteet yli 4000 lentoasemalta (METAR- ja TAF-raportit).

Käytössä olevat sääasemat on merkitty karttaan keltaisilla ja punaisilla pisteillä.

Aseta hiiri pisteen päälle nähdäksesi sääaseman nimen.

Klikkaa sitten nähdäksesi säähavainnot ja -ennusteet.

Kartan vaihtaminen: klikkaa mustalla rastilla varustettuja vihreitä pisteitä, niin voit zoomata sisään; viivalla varustettua vihreää pistettä, niin voit zoomata ulos tai vihreitä nuolia, niin pääset viereisille kartoille.


METAR-TAF: